Huvudsida
METAR-TAF:

METAR-TAF

Flygplatser :

Tallinns internationella flygplats

Tallinn, Estland

latitud: 59-23N, longitud: 024-35E, höjd: 44 m

Aktuellt väderrapport

Denna rapport gjordes för 30 minuter sedan, klockan 08:50 UTC
Vind 9 kt från nord/nordost, varierande mellan nord och ost/nordost
Temperatur 16°C
Fuktighet 45%
Tryck 1024 hPa
Sikt 10 km eller mer
Inga moln under 1 500 m eller inga cumulonimbus

METAR: EETN 210850Z 03009KT 350V070 CAVOK 16/04 Q1024 NOSIG

Tid: 12:20 (09:20 UTC)

Väderprognos

Denna rapport gjordes för 3 timmar och 50 minuter sedan, klockan 05:30 UTC
Prognos gäller från 21 kl. 06 UTC till 22 kl. 06 UTC
Vind 7 kt från nordost
Sikt 10 km eller mer
Inga moln under 1 500 m eller inga cumulonimbus
Temporärt
från 21 kl. 08 UTC till 21 kl. 17 UTC
Vind 16 kt från nord/nordost
Blir
från 21 kl. 18 UTC till 21 kl. 20 UTC
Vind 10 kt från ost/sydost

TAF: EETN 210530Z 2106/2206 05007KT CAVOK TEMPO 2108/2117 03016KT BECMG 2118/2120 11010KT

Aktuella väderrapporter och prognoser från 4000 flygplatser (METAR- och TAF-rapporter).

De tillgängliga stationerna syns som gula och röda prickar på kartan.

För musen över prickarna för att se namnen på stationerna.

Klicka sedan för att få väderrapporter och prognoser.

För att ändra kartan: Klicka på de gröna knapparna med ett svart kors på för att zooma in; den gröna knappen med ett streck på för att zooma ut; eller på de gröna pilarna för angränsande kartor.


METAR-TAF: